Ariton, AL

8:39 PM CDT on August 23, 2016 (GMT -0500)
Asbury | | Change Station

Elev 367 ft 31.51 °N, 85.55 °W | Updated 31 seconds ago

Mostly Cloudy
Mostly Cloudy
80.2 °F
Feels Like 85 °F
N
0.0
Wind Variable Wind from SSW
Gusts 1.0 mph

Today
High -- | Low -- °F
--% Chance of Precip.
Yesterday
High -- | Low -- °F
Precip. -- in
Pressure 30.13 in
Visibility 10.0 miles
Clouds Mostly Cloudy 10000 ft
Heat Index 85 °F
Dew Point 75 °F
Humidity 85%
Rainfall 0.00 in
Snow Depth Not available.
6:13 AM 7:16 PM
Waning Gibbous, 62% visible
METAR KLOR 240053Z AUTO 00000KT 10SM BKN100 28/26 A3014 RMK AO2 TSE44 SLP202 T02830256
Pressure 30.13 in
Visibility 10.0 miles
Clouds Mostly Cloudy 10000 ft
Heat Index 85 °F
Dew Point 75 °F
Humidity 85%
Rainfall 0.00 in
Snow Depth Not available.
6:13 AM 7:16 PM
Waning Gibbous, 62% visible
METAR KLOR 240053Z AUTO 00000KT 10SM BKN100 28/26 A3014 RMK AO2 TSE44 SLP202 T02830256

10-Day Weather Forecast

Almanac

Astronomy

Aug. 23, 2016 Rise Set
Actual Time
Civil Twilight
Nautical Twilight
Astronomical Twilight
Moon
Length of Visible Light
Length of Day
Tomorrow will be .
, % of the Moon is Illuminated

Today's Extremes

State Highs State Lows

Community

WunderPhotos

Upload Photos

1,934,517 photos uploaded!

WunderBlog® & News

Nearby

Air Quality

  Air Quality AQ Index Pollutant
Not available.

Snow Depth

Station Depth Elevation

Earthquake Activity

City Distance Mag. Time & Date
Minimum magnitude displayed is 2.5.

Coastal Water Temperatures

Place Temperature

Stations

Nearby Weather Stations

Station Location Temp. Windchill Dew Point Humidity Wind Precip. Elev Updated Type
                   

Watches & Warnings

There are currently no watches in effect.